createdAt,value
2023-03-26T00:00:34.413Z,2.00
2023-03-26T00:01:34.401Z,2.20
2023-03-26T00:02:34.434Z,2.20
2023-03-26T00:03:34.348Z,1.10
2023-03-26T00:04:34.404Z,3.40
2023-03-26T00:05:34.447Z,1.70
2023-03-26T00:06:34.309Z,1.60
2023-03-26T00:07:34.303Z,2.10
2023-03-26T00:08:34.381Z,2.50
2023-03-26T00:09:34.291Z,2.50
2023-03-26T00:10:34.308Z,2.60
2023-03-26T00:11:34.260Z,4.10
2023-03-26T00:12:34.258Z,2.40
2023-03-26T00:13:34.234Z,2.80
2023-03-26T00:14:34.267Z,4.10
2023-03-26T00:15:34.195Z,1.50
2023-03-26T00:16:34.211Z,3.10
2023-03-26T00:17:34.231Z,3.10
2023-03-26T00:18:34.159Z,3.70
2023-03-26T00:19:34.171Z,3.60
2023-03-26T00:20:34.193Z,2.70
2023-03-26T00:21:34.210Z,2.20
2023-03-26T00:22:34.209Z,2.10
2023-03-26T00:23:34.109Z,4.90
2023-03-26T00:24:34.086Z,2.90
2023-03-26T00:25:34.114Z,2.00
2023-03-26T00:26:34.111Z,3.00
2023-03-26T00:27:34.104Z,2.20
2023-03-26T00:28:34.062Z,1.80
2023-03-26T00:29:34.045Z,3.00
2023-03-26T00:30:34.060Z,2.70
2023-03-26T00:31:34.033Z,5.00
2023-03-26T00:32:34.065Z,3.00
2023-03-26T00:33:34.078Z,2.40
2023-03-26T00:34:34.021Z,3.90
2023-03-26T00:35:34.018Z,3.30
2023-03-26T00:36:33.967Z,3.70
2023-03-26T00:37:33.944Z,2.30
2023-03-26T00:38:33.982Z,4.20
2023-03-26T00:39:33.952Z,3.20
2023-03-26T00:40:33.919Z,2.90
2023-03-26T00:41:33.924Z,3.30
2023-03-26T00:42:33.906Z,3.30
2023-03-26T00:43:33.917Z,5.50
2023-03-26T00:44:33.878Z,2.30
2023-03-26T00:45:33.856Z,5.10
2023-03-26T00:46:33.882Z,2.80
2023-03-26T00:47:33.905Z,4.40
2023-03-26T00:48:44.464Z,3.40
2023-03-26T00:49:34.834Z,5.50
2023-03-26T00:50:33.799Z,7.20
2023-03-26T00:51:33.824Z,3.90
2023-03-26T00:52:33.810Z,2.90
2023-03-26T00:53:33.841Z,2.80
2023-03-26T00:54:33.753Z,4.00
2023-03-26T00:55:33.750Z,3.30
2023-03-26T00:56:33.756Z,3.00
2023-03-26T00:57:35.817Z,5.20
2023-03-26T00:58:33.699Z,3.40
2023-03-26T00:59:33.747Z,5.00
2023-03-26T01:00:33.722Z,4.10
2023-03-26T01:01:33.744Z,3.40
2023-03-26T01:02:33.796Z,3.90
2023-03-26T01:03:33.817Z,3.00
2023-03-26T01:04:33.885Z,4.10
2023-03-26T01:05:33.618Z,5.30
2023-03-26T01:06:33.622Z,4.70
2023-03-26T01:07:33.622Z,4.80
2023-03-26T01:08:33.651Z,3.80
2023-03-26T01:09:33.616Z,4.30
2023-03-26T01:10:33.574Z,4.80
2023-03-26T01:11:33.583Z,4.70
2023-03-26T01:12:33.564Z,3.90
2023-03-26T01:13:33.542Z,4.00
2023-03-26T01:14:33.578Z,4.80
2023-03-26T01:15:33.571Z,3.40
2023-03-26T01:16:33.515Z,5.10
2023-03-26T01:17:33.539Z,3.90
2023-03-26T01:18:33.473Z,4.60
2023-03-26T01:19:33.512Z,3.90
2023-03-26T01:20:33.474Z,5.10
2023-03-26T01:21:33.453Z,4.40
2023-03-26T01:22:33.449Z,6.50
2023-03-26T01:23:33.440Z,5.00
2023-03-26T01:24:33.411Z,3.70
2023-03-26T01:25:33.442Z,4.00
2023-03-26T01:26:33.410Z,4.10
2023-03-26T01:27:33.428Z,3.70
2023-03-26T01:28:33.390Z,3.20
2023-03-26T01:29:33.430Z,4.30
2023-03-26T01:30:33.350Z,4.60
2023-03-26T01:31:33.360Z,3.50
2023-03-26T01:32:33.494Z,4.10
2023-03-26T01:33:33.390Z,3.40
2023-03-26T01:34:33.309Z,4.80
2023-03-26T01:35:33.370Z,4.90
2023-03-26T01:36:33.300Z,3.70
2023-03-26T01:37:33.249Z,4.10
2023-03-26T01:38:33.258Z,4.50
2023-03-26T01:39:33.266Z,3.90
2023-03-26T01:40:33.383Z,3.40
2023-03-26T01:41:33.233Z,3.70
2023-03-26T01:42:33.235Z,2.90
2023-03-26T01:43:33.203Z,4.60
2023-03-26T01:44:33.209Z,4.10
2023-03-26T01:45:33.173Z,3.40
2023-03-26T01:46:33.206Z,3.90
2023-03-26T01:47:33.233Z,3.30
2023-03-26T01:48:33.165Z,3.40
2023-03-26T01:49:33.203Z,4.00
2023-03-26T01:50:33.169Z,5.20
2023-03-26T01:51:33.111Z,2.70
2023-03-26T01:52:33.101Z,3.10
2023-03-26T01:53:33.130Z,4.90
2023-03-26T01:54:33.172Z,2.40
2023-03-26T01:55:33.113Z,5.80
2023-03-26T01:56:33.105Z,4.60
2023-03-26T01:57:33.037Z,4.30
2023-03-26T01:58:33.016Z,3.70
2023-03-26T01:59:33.052Z,6.50
2023-03-26T02:00:33.000Z,5.40
2023-03-26T02:01:33.091Z,3.50
2023-03-26T02:02:33.204Z,3.20
2023-03-26T02:03:32.994Z,3.70
2023-03-26T02:04:33.016Z,4.90
2023-03-26T02:05:32.939Z,3.00
2023-03-26T02:06:32.971Z,4.30
2023-03-26T02:07:32.939Z,4.10
2023-03-26T02:08:32.954Z,3.60
2023-03-26T02:09:32.919Z,4.30
2023-03-26T02:10:32.940Z,5.80
2023-03-26T02:11:35.973Z,3.70
2023-03-26T02:12:32.865Z,2.80
2023-03-26T02:13:32.853Z,3.80
2023-03-26T02:14:32.839Z,3.00
2023-03-26T02:15:32.857Z,4.80
2023-03-26T02:16:33.023Z,3.30
2023-03-26T02:17:32.878Z,3.90
2023-03-26T02:18:32.809Z,6.90
2023-03-26T02:19:32.783Z,6.10
2023-03-26T02:20:32.797Z,3.50
2023-03-26T02:21:32.776Z,2.80
2023-03-26T02:22:32.774Z,3.90
2023-03-26T02:23:32.737Z,3.90
2023-03-26T02:24:32.759Z,3.70
2023-03-26T02:25:32.715Z,4.20
2023-03-26T02:26:32.742Z,3.70
2023-03-26T02:27:32.722Z,6.70
2023-03-26T02:28:32.706Z,4.40
2023-03-26T02:29:32.654Z,4.40
2023-03-26T02:30:32.677Z,3.60
2023-03-26T02:31:32.688Z,4.00
2023-03-26T02:32:32.681Z,4.10
2023-03-26T02:33:32.621Z,4.90
2023-03-26T02:34:32.618Z,3.50
2023-03-26T02:35:32.679Z,4.40
2023-03-26T02:36:32.732Z,3.70
2023-03-26T02:37:32.598Z,6.10
2023-03-26T02:38:32.548Z,3.10
2023-03-26T02:39:32.556Z,4.00
2023-03-26T02:40:32.546Z,5.30
2023-03-26T02:41:32.549Z,5.30
2023-03-26T02:42:32.568Z,3.80
2023-03-26T02:43:32.525Z,5.40
2023-03-26T02:44:32.539Z,4.30
2023-03-26T02:45:32.565Z,3.10
2023-03-26T02:46:32.550Z,3.20
2023-03-26T02:47:32.575Z,5.00
2023-03-26T02:48:32.489Z,5.20
2023-03-26T02:49:32.444Z,2.80
2023-03-26T02:50:32.422Z,4.60
2023-03-26T02:51:32.433Z,4.50
2023-03-26T02:52:32.437Z,4.40
2023-03-26T02:53:32.426Z,3.10
2023-03-26T02:54:32.401Z,5.20
2023-03-26T02:55:32.381Z,5.30
2023-03-26T02:56:32.450Z,5.90
2023-03-26T02:57:32.349Z,4.80
2023-03-26T02:58:32.344Z,5.20
2023-03-26T02:59:32.468Z,4.90
2023-03-26T03:00:32.318Z,6.60
2023-03-26T03:01:32.377Z,6.20
2023-03-26T03:02:32.317Z,5.60
2023-03-26T03:03:32.320Z,8.10
2023-03-26T03:04:32.284Z,6.80
2023-03-26T03:05:32.286Z,6.30
2023-03-26T03:06:32.232Z,3.80
2023-03-26T03:07:32.286Z,6.90
2023-03-26T03:08:32.243Z,4.70
2023-03-26T03:09:32.223Z,7.80
2023-03-26T03:10:32.201Z,4.40
2023-03-26T03:11:32.192Z,4.90
2023-03-26T03:12:32.184Z,8.70
2023-03-26T03:13:32.186Z,6.90
2023-03-26T03:14:32.189Z,7.40
2023-03-26T03:15:32.146Z,6.20
2023-03-26T03:16:32.270Z,5.10
2023-03-26T03:17:32.126Z,6.60
2023-03-26T03:18:32.146Z,7.00
2023-03-26T03:19:32.111Z,4.40
2023-03-26T03:20:32.137Z,5.10
2023-03-26T03:21:32.086Z,6.90
2023-03-26T03:22:32.051Z,6.90
2023-03-26T03:23:32.094Z,7.40
2023-03-26T03:24:32.072Z,4.90
2023-03-26T03:25:32.062Z,5.00
2023-03-26T03:26:32.027Z,5.50
2023-03-26T03:27:32.017Z,6.80
2023-03-26T03:28:32.020Z,5.70
2023-03-26T03:29:32.031Z,6.90
2023-03-26T03:30:32.009Z,5.10
2023-03-26T03:31:32.046Z,6.10
2023-03-26T03:32:31.975Z,5.00
2023-03-26T03:33:31.944Z,5.30
2023-03-26T03:34:31.940Z,5.70
2023-03-26T03:35:32.016Z,4.60
2023-03-26T03:36:31.909Z,5.50
2023-03-26T03:37:31.954Z,4.50
2023-03-26T03:38:31.900Z,7.30
2023-03-26T03:39:31.883Z,7.20
2023-03-26T03:40:31.870Z,5.10
2023-03-26T03:41:31.857Z,6.10
2023-03-26T03:42:31.850Z,6.50
2023-03-26T03:43:31.856Z,6.60
2023-03-26T03:44:31.847Z,6.10
2023-03-26T03:45:31.793Z,6.90
2023-03-26T03:46:31.830Z,8.40
2023-03-26T03:47:31.842Z,5.10
2023-03-26T03:48:31.798Z,3.40
2023-03-26T03:49:31.786Z,3.80
2023-03-26T03:50:33.707Z,7.30
2023-03-26T03:51:31.719Z,5.00
2023-03-26T03:52:31.733Z,4.20
2023-03-26T03:53:31.754Z,5.40
2023-03-26T03:54:31.712Z,3.70
2023-03-26T03:55:31.789Z,8.90
2023-03-26T03:56:31.696Z,5.80
2023-03-26T03:57:31.686Z,4.10
2023-03-26T03:58:31.651Z,4.80
2023-03-26T03:59:31.695Z,5.80
2023-03-26T04:00:31.638Z,5.10
2023-03-26T04:01:31.625Z,4.70
2023-03-26T04:02:31.779Z,3.30
2023-03-26T04:03:34.049Z,3.80
2023-03-26T04:04:31.607Z,6.30
2023-03-26T04:05:31.617Z,4.30
2023-03-26T04:06:31.558Z,5.10
2023-03-26T04:07:31.592Z,4.90
2023-03-26T04:08:31.568Z,4.40
2023-03-26T04:09:31.580Z,4.80
2023-03-26T04:10:31.518Z,3.90
2023-03-26T04:11:31.490Z,4.70
2023-03-26T04:12:31.488Z,6.10
2023-03-26T04:13:31.533Z,5.40
2023-03-26T04:14:31.485Z,2.70
2023-03-26T04:15:31.509Z,3.40
2023-03-26T04:16:31.466Z,3.60
2023-03-26T04:17:31.528Z,4.80
2023-03-26T04:18:31.412Z,4.20
2023-03-26T04:19:31.432Z,4.20
2023-03-26T04:20:31.422Z,4.30
2023-03-26T04:21:31.403Z,3.60
2023-03-26T04:22:31.420Z,3.80
2023-03-26T04:23:31.389Z,4.50
2023-03-26T04:24:31.366Z,4.90
2023-03-26T04:25:31.359Z,4.70
2023-03-26T04:26:31.323Z,3.30
2023-03-26T04:27:31.359Z,2.90
2023-03-26T04:28:31.333Z,5.10
2023-03-26T04:29:31.305Z,2.70
2023-03-26T04:30:31.293Z,4.30
2023-03-26T04:31:31.349Z,4.00
2023-03-26T04:32:31.296Z,3.50
2023-03-26T04:33:31.279Z,3.60
2023-03-26T04:34:31.231Z,6.00
2023-03-26T04:35:31.247Z,4.90
2023-03-26T04:36:31.233Z,5.30
2023-03-26T04:37:31.219Z,3.10
2023-03-26T04:38:31.192Z,4.50
2023-03-26T04:39:31.222Z,4.50
2023-03-26T04:40:31.208Z,6.80
2023-03-26T04:41:31.162Z,3.50
2023-03-26T04:42:31.178Z,4.10
2023-03-26T04:43:31.249Z,3.30
2023-03-26T04:44:31.159Z,6.20
2023-03-26T04:45:31.155Z,3.20
2023-03-26T04:46:31.106Z,3.20
2023-03-26T04:47:31.131Z,4.60
2023-03-26T04:48:31.071Z,5.50
2023-03-26T04:49:31.061Z,6.10
2023-03-26T04:50:31.113Z,7.50
2023-03-26T04:51:31.103Z,5.30
2023-03-26T04:52:31.040Z,5.00
2023-03-26T04:53:31.035Z,5.70
2023-03-26T04:54:31.076Z,6.50
2023-03-26T04:55:31.017Z,5.40
2023-03-26T04:56:31.055Z,4.70
2023-03-26T04:57:30.983Z,4.70
2023-03-26T04:58:30.981Z,3.90
2023-03-26T04:59:30.977Z,4.30
2023-03-26T05:00:30.982Z,4.00
2023-03-26T05:01:31.081Z,5.10
2023-03-26T05:02:30.953Z,4.30
2023-03-26T05:03:30.904Z,6.50
2023-03-26T05:04:31.000Z,5.10
2023-03-26T05:05:30.891Z,5.90
2023-03-26T05:06:30.920Z,6.60
2023-03-26T05:07:31.090Z,6.30
2023-03-26T05:08:30.839Z,6.00
2023-03-26T05:09:30.868Z,6.20
2023-03-26T05:10:30.841Z,6.30
2023-03-26T05:11:30.846Z,6.70
2023-03-26T05:12:30.831Z,6.80
2023-03-26T05:13:30.830Z,6.60
2023-03-26T05:14:30.843Z,5.60
2023-03-26T05:15:30.793Z,6.00
2023-03-26T05:16:30.779Z,6.30
2023-03-26T05:17:30.848Z,7.40
2023-03-26T05:18:30.863Z,7.50
2023-03-26T05:19:30.713Z,6.40
2023-03-26T05:20:30.740Z,7.40
2023-03-26T05:21:30.734Z,4.40
2023-03-26T05:22:30.694Z,7.70
2023-03-26T05:23:30.689Z,5.60
2023-03-26T05:24:30.663Z,7.60
2023-03-26T05:25:30.706Z,5.50
2023-03-26T05:26:30.679Z,4.80
2023-03-26T05:27:30.652Z,6.20
2023-03-26T05:28:30.621Z,5.10
2023-03-26T05:29:30.626Z,7.70
2023-03-26T05:30:30.618Z,6.90
2023-03-26T05:31:30.623Z,7.30
2023-03-26T05:32:30.631Z,6.90
2023-03-26T05:33:30.742Z,6.80
2023-03-26T05:34:30.557Z,4.70
2023-03-26T05:35:30.600Z,7.40
2023-03-26T05:36:30.585Z,7.20
2023-03-26T05:37:30.527Z,6.80
2023-03-26T05:38:30.526Z,5.80
2023-03-26T05:39:30.493Z,6.80
2023-03-26T05:40:30.666Z,7.20
2023-03-26T05:41:30.480Z,7.10
2023-03-26T05:42:30.507Z,5.20
2023-03-26T05:43:30.466Z,8.20
2023-03-26T05:44:30.466Z,5.90
2023-03-26T05:45:30.443Z,6.30
2023-03-26T05:46:30.516Z,6.00
2023-03-26T05:47:30.520Z,7.80
2023-03-26T05:48:30.402Z,7.40
2023-03-26T05:49:30.406Z,5.60
2023-03-26T05:50:30.398Z,8.30
2023-03-26T05:51:30.413Z,4.80
2023-03-26T05:52:30.377Z,5.80
2023-03-26T05:53:30.334Z,7.00
2023-03-26T05:54:30.323Z,4.90
2023-03-26T05:55:30.329Z,4.90
2023-03-26T05:56:30.366Z,6.30
2023-03-26T05:57:30.361Z,6.50
2023-03-26T05:58:30.321Z,7.00
2023-03-26T05:59:30.329Z,4.90
2023-03-26T06:00:30.265Z,5.60
2023-03-26T06:01:30.286Z,8.80
2023-03-26T06:02:30.311Z,9.50
2023-03-26T06:03:30.348Z,6.50
2023-03-26T06:04:30.302Z,6.00
2023-03-26T06:05:30.212Z,7.50
2023-03-26T06:06:32.294Z,7.20
2023-03-26T06:07:30.211Z,7.30
2023-03-26T06:08:30.228Z,6.00
2023-03-26T06:09:30.165Z,8.70
2023-03-26T06:10:30.136Z,5.00
2023-03-26T06:11:30.158Z,9.00
2023-03-26T06:12:30.117Z,5.70
2023-03-26T06:13:30.175Z,8.30
2023-03-26T06:14:30.125Z,5.50
2023-03-26T06:15:30.114Z,6.10
2023-03-26T06:16:30.093Z,5.20
2023-03-26T06:17:30.174Z,7.40
2023-03-26T06:18:30.104Z,7.50
2023-03-26T06:19:30.093Z,8.40
2023-03-26T06:20:30.045Z,5.90
2023-03-26T06:21:30.014Z,5.10
2023-03-26T06:22:30.012Z,5.40
2023-03-26T06:23:30.006Z,7.70
2023-03-26T06:24:30.026Z,7.40
2023-03-26T06:25:29.996Z,8.10
2023-03-26T06:26:29.951Z,6.70
2023-03-26T06:27:29.950Z,6.70
2023-03-26T06:28:30.013Z,7.90
2023-03-26T06:29:29.948Z,8.60
2023-03-26T06:30:30.032Z,5.20
2023-03-26T06:31:29.992Z,7.50
2023-03-26T06:32:29.946Z,5.70
2023-03-26T06:33:29.890Z,6.70
2023-03-26T06:34:29.898Z,7.40
2023-03-26T06:35:29.960Z,6.20
2023-03-26T06:36:29.872Z,7.20
2023-03-26T06:37:29.866Z,7.10
2023-03-26T06:38:29.829Z,7.90
2023-03-26T06:39:29.859Z,6.30
2023-03-26T06:40:29.805Z,7.10
2023-03-26T06:41:29.810Z,5.70
2023-03-26T06:43:06.405Z,7.70
2023-03-26T06:43:30.769Z,7.40
2023-03-26T06:44:29.766Z,6.60
2023-03-26T06:45:29.762Z,6.80
2023-03-26T06:46:29.796Z,5.70
2023-03-26T06:47:29.792Z,7.70
2023-03-26T06:48:29.732Z,9.40
2023-03-26T06:49:29.712Z,8.40
2023-03-26T06:50:29.694Z,7.10
2023-03-26T06:51:29.709Z,6.60
2023-03-26T06:52:29.722Z,6.60
2023-03-26T06:53:29.685Z,7.40
2023-03-26T06:54:29.766Z,5.30
2023-03-26T06:55:29.638Z,8.60
2023-03-26T06:56:29.661Z,6.50
2023-03-26T06:57:29.659Z,7.70
2023-03-26T06:58:29.857Z,8.50
2023-03-26T06:59:29.579Z,7.50
2023-03-26T07:00:29.587Z,8.20
2023-03-26T07:01:29.632Z,10.80
2023-03-26T07:02:29.619Z,7.80
2023-03-26T07:03:29.585Z,6.00
2023-03-26T07:04:29.609Z,7.70
2023-03-26T07:05:29.644Z,8.50
2023-03-26T07:06:29.575Z,8.90
2023-03-26T07:07:29.528Z,8.10
2023-03-26T07:08:29.491Z,5.20
2023-03-26T07:09:29.519Z,9.90
2023-03-26T07:10:29.502Z,8.80
2023-03-26T07:11:29.530Z,7.30
2023-03-26T07:12:29.451Z,8.60
2023-03-26T07:13:29.449Z,5.20
2023-03-26T07:14:29.408Z,8.70
2023-03-26T07:15:29.468Z,7.00
2023-03-26T07:16:29.416Z,8.60
2023-03-26T07:17:29.423Z,9.40
2023-03-26T07:18:29.380Z,8.80
2023-03-26T07:19:29.390Z,7.50
2023-03-26T07:20:29.415Z,8.20
2023-03-26T07:21:29.369Z,7.40
2023-03-26T07:22:29.351Z,10.80
2023-03-26T07:23:29.328Z,8.70
2023-03-26T07:24:29.320Z,7.00
2023-03-26T07:25:29.331Z,9.70
2023-03-26T07:26:29.369Z,6.90
2023-03-26T07:27:29.290Z,8.40
2023-03-26T07:28:29.292Z,9.00
2023-03-26T07:29:29.265Z,9.10
2023-03-26T07:30:29.570Z,6.60
2023-03-26T07:31:29.257Z,8.10
2023-03-26T07:32:29.259Z,5.70
2023-03-26T07:33:29.249Z,7.90
2023-03-26T07:34:29.205Z,8.70
2023-03-26T07:35:29.216Z,7.80
2023-03-26T07:36:29.216Z,8.40
2023-03-26T07:37:29.200Z,7.50
2023-03-26T07:38:29.147Z,9.40
2023-03-26T07:39:29.175Z,7.10
2023-03-26T07:40:29.133Z,6.70
2023-03-26T07:41:29.126Z,6.40
2023-03-26T07:42:29.109Z,7.60
2023-03-26T07:43:29.103Z,8.70
2023-03-26T07:44:29.078Z,6.70
2023-03-26T07:45:29.179Z,6.30
2023-03-26T07:46:29.093Z,8.30
2023-03-26T07:47:29.170Z,7.40
2023-03-26T07:48:29.068Z,6.90
2023-03-26T07:49:29.022Z,7.10
2023-03-26T07:50:29.030Z,8.60
2023-03-26T07:51:28.998Z,8.30
2023-03-26T07:52:29.026Z,6.20
2023-03-26T07:53:28.979Z,8.30
2023-03-26T07:54:28.982Z,8.50
2023-03-26T07:55:28.978Z,7.00
2023-03-26T07:56:28.996Z,8.10
2023-03-26T07:57:28.984Z,7.50
2023-03-26T07:58:28.950Z,6.90
2023-03-26T07:59:28.921Z,8.70
2023-03-26T08:00:28.950Z,9.10
2023-03-26T08:01:28.889Z,10.20
2023-03-26T08:02:28.977Z,7.60
2023-03-26T08:03:29.093Z,7.20
2023-03-26T08:04:28.976Z,10.00
2023-03-26T08:05:28.857Z,7.10
2023-03-26T08:06:28.868Z,5.70
2023-03-26T08:07:28.854Z,8.50
2023-03-26T08:08:28.884Z,7.60
2023-03-26T08:09:28.804Z,10.50
2023-03-26T08:10:28.825Z,7.50
2023-03-26T08:11:28.786Z,8.30
2023-03-26T08:12:28.793Z,7.00
2023-03-26T08:13:28.767Z,9.10
2023-03-26T08:14:28.772Z,6.30
2023-03-26T08:15:28.763Z,5.40
2023-03-26T08:16:28.715Z,7.00
2023-03-26T08:17:30.641Z,6.70
2023-03-26T08:18:28.696Z,5.60
2023-03-26T08:19:28.686Z,6.50
2023-03-26T08:20:28.692Z,6.50
2023-03-26T08:21:28.682Z,5.60
2023-03-26T08:22:28.695Z,5.40
2023-03-26T08:23:28.703Z,7.00
2023-03-26T08:24:28.619Z,6.40
2023-03-26T08:25:28.655Z,5.60
2023-03-26T08:26:28.627Z,6.80
2023-03-26T08:27:28.593Z,6.90
2023-03-26T08:28:28.636Z,7.10
2023-03-26T08:29:28.620Z,6.70
2023-03-26T08:30:28.564Z,5.30
2023-03-26T08:31:28.603Z,5.00
2023-03-26T08:32:28.590Z,7.10
2023-03-26T08:33:28.522Z,7.00
2023-03-26T08:34:28.532Z,4.80
2023-03-26T08:35:28.648Z,6.80
2023-03-26T08:36:28.478Z,5.90
2023-03-26T08:37:28.520Z,5.20
2023-03-26T08:38:28.456Z,7.20
2023-03-26T08:39:28.501Z,7.10
2023-03-26T08:40:28.436Z,4.60
2023-03-26T08:41:28.426Z,5.50
2023-03-26T08:42:28.480Z,8.10
2023-03-26T08:43:28.430Z,6.10
2023-03-26T08:44:28.405Z,6.40
2023-03-26T08:45:28.409Z,6.80
2023-03-26T08:46:28.404Z,5.90
2023-03-26T08:47:28.393Z,5.00
2023-03-26T08:48:28.377Z,6.70
2023-03-26T08:49:29.651Z,5.20
2023-03-26T08:50:28.339Z,6.50
2023-03-26T08:51:28.346Z,7.10
2023-03-26T08:52:28.339Z,7.70
2023-03-26T08:53:28.331Z,6.50
2023-03-26T08:54:28.308Z,6.40
2023-03-26T08:55:28.297Z,6.10
2023-03-26T08:56:28.318Z,6.20
2023-03-26T08:57:28.317Z,4.90
2023-03-26T08:58:28.276Z,6.90
2023-03-26T08:59:28.237Z,6.90
2023-03-26T09:00:28.232Z,6.60
2023-03-26T09:01:28.284Z,5.60
2023-03-26T09:02:28.222Z,7.50
2023-03-26T09:03:28.262Z,7.60
2023-03-26T09:04:28.165Z,6.70
2023-03-26T09:05:28.173Z,8.90
2023-03-26T09:06:28.144Z,8.00
2023-03-26T09:07:28.195Z,6.60
2023-03-26T09:08:30.054Z,7.40
2023-03-26T09:09:28.150Z,7.70
2023-03-26T09:10:28.135Z,5.80
2023-03-26T09:11:28.117Z,7.00
2023-03-26T09:12:28.122Z,8.50
2023-03-26T09:13:28.063Z,6.10
2023-03-26T09:14:28.083Z,5.40
2023-03-26T09:15:28.085Z,7.10
2023-03-26T09:16:28.121Z,5.50
2023-03-26T09:17:28.086Z,9.70
2023-03-26T09:18:28.018Z,6.40
2023-03-26T09:19:28.030Z,7.00
2023-03-26T09:20:28.040Z,10.20
2023-03-26T09:21:28.001Z,5.80
2023-03-26T09:22:28.004Z,4.60
2023-03-26T09:23:27.992Z,6.40
2023-03-26T09:24:27.960Z,6.80
2023-03-26T09:25:27.952Z,6.70
2023-03-26T09:26:27.999Z,6.80
2023-03-26T09:27:27.929Z,7.10
2023-03-26T09:28:27.935Z,9.30
2023-03-26T09:29:27.887Z,6.80
2023-03-26T09:30:27.901Z,6.80
2023-03-26T09:31:27.937Z,8.50
2023-03-26T09:32:27.947Z,5.70
2023-03-26T09:33:27.855Z,6.10
2023-03-26T09:34:27.843Z,10.20
2023-03-26T09:35:27.900Z,5.80
2023-03-26T09:36:27.852Z,5.60
2023-03-26T09:37:27.800Z,7.70
2023-03-26T09:38:27.850Z,9.30
2023-03-26T09:39:27.801Z,7.10
2023-03-26T09:40:27.760Z,7.20
2023-03-26T09:41:27.812Z,5.00
2023-03-26T09:42:27.793Z,5.30
2023-03-26T09:43:27.727Z,6.40
2023-03-26T09:44:27.768Z,6.70
2023-03-26T09:45:27.739Z,5.60
2023-03-26T09:46:27.746Z,5.70
2023-03-26T09:47:27.732Z,5.00
2023-03-26T09:48:27.668Z,7.10
2023-03-26T09:49:27.687Z,5.10
2023-03-26T09:50:27.680Z,6.30
2023-03-26T09:51:27.802Z,6.70
2023-03-26T09:52:27.684Z,6.60
2023-03-26T09:53:27.645Z,6.20
2023-03-26T09:54:27.609Z,8.80
2023-03-26T09:55:27.609Z,5.50
2023-03-26T09:56:27.618Z,6.10
2023-03-26T09:57:27.660Z,5.80
2023-03-26T09:58:27.582Z,8.60
2023-03-26T09:59:27.588Z,5.30
2023-03-26T10:00:27.534Z,4.40
2023-03-26T10:01:27.654Z,7.30
2023-03-26T10:02:47.089Z,4.90
2023-03-26T10:03:28.598Z,8.60
2023-03-26T10:04:27.607Z,6.30
2023-03-26T10:05:27.481Z,5.70
2023-03-26T10:06:27.477Z,7.70
2023-03-26T10:07:27.478Z,5.70
2023-03-26T10:08:27.949Z,6.40
2023-03-26T10:09:27.493Z,7.20
2023-03-26T10:10:27.428Z,7.00
2023-03-26T10:11:27.421Z,7.20
2023-03-26T10:12:27.407Z,6.10
2023-03-26T10:13:27.442Z,6.40
2023-03-26T10:14:27.421Z,7.10
2023-03-26T10:15:27.385Z,6.60
2023-03-26T10:16:27.402Z,5.70
2023-03-26T10:17:27.374Z,5.90
2023-03-26T10:18:30.166Z,5.30
2023-03-26T10:19:27.591Z,6.50
2023-03-26T10:20:27.326Z,7.70
2023-03-26T10:21:28.501Z,4.50
2023-03-26T10:22:27.318Z,6.30
2023-03-26T10:23:27.304Z,5.80
2023-03-26T10:24:27.343Z,6.50
2023-03-26T10:25:27.302Z,8.40
2023-03-26T10:26:27.264Z,5.20
2023-03-26T10:27:27.312Z,6.80
2023-03-26T10:28:27.237Z,7.00
2023-03-26T10:29:27.241Z,4.10
2023-03-26T10:30:27.293Z,5.30
2023-03-26T10:31:27.324Z,5.10
2023-03-26T10:32:27.213Z,7.10
2023-03-26T10:33:27.157Z,6.10
2023-03-26T10:34:29.310Z,6.20
2023-03-26T10:35:27.300Z,7.20
2023-03-26T10:36:27.130Z,6.50
2023-03-26T10:37:27.130Z,9.00
2023-03-26T10:38:27.135Z,6.70
2023-03-26T10:39:38.385Z,7.90
2023-03-26T10:40:28.114Z,3.30
2023-03-26T10:41:27.054Z,6.30
2023-03-26T10:42:27.062Z,5.20
2023-03-26T10:43:27.068Z,5.80
2023-03-26T10:44:27.046Z,8.30
2023-03-26T10:45:27.068Z,7.40
2023-03-26T10:46:27.033Z,4.50
2023-03-26T10:47:27.077Z,5.10
2023-03-26T10:48:27.042Z,6.40
2023-03-26T10:49:27.021Z,5.20
2023-03-26T10:50:26.960Z,6.00
2023-03-26T10:51:26.975Z,6.70
2023-03-26T10:52:26.957Z,8.60
2023-03-26T10:53:26.978Z,5.60
2023-03-26T10:54:26.954Z,6.20
2023-03-26T10:55:26.908Z,5.80
2023-03-26T10:56:26.903Z,4.60
2023-03-26T10:57:26.898Z,5.80
2023-03-26T10:58:26.880Z,4.80
2023-03-26T10:59:27.086Z,7.60
2023-03-26T11:00:26.929Z,6.70
2023-03-26T11:01:26.883Z,7.00
2023-03-26T11:02:30.460Z,5.40
2023-03-26T11:03:26.810Z,9.80
2023-03-26T11:04:26.808Z,6.40
2023-03-26T11:05:26.946Z,5.50
2023-03-26T11:06:26.835Z,4.70
2023-03-26T11:07:26.845Z,5.40
2023-03-26T11:08:31.610Z,5.80
2023-03-26T11:09:27.769Z,4.60
2023-03-26T11:10:26.737Z,6.40
2023-03-26T11:11:26.760Z,6.70
2023-03-26T11:12:28.140Z,4.90
2023-03-26T11:13:26.723Z,6.20
2023-03-26T11:14:34.416Z,7.70
2023-03-26T11:15:27.776Z,7.10
2023-03-26T11:16:26.693Z,5.50
2023-03-26T11:17:40.582Z,5.20
2023-03-26T11:18:27.760Z,6.80
2023-03-26T11:19:26.663Z,8.40
2023-03-26T11:20:26.664Z,7.20
2023-03-26T11:21:26.660Z,7.80
2023-03-26T11:22:26.632Z,7.70
2023-03-26T11:23:26.621Z,5.20
2023-03-26T11:24:26.618Z,8.10
2023-03-26T11:25:26.617Z,6.90
2023-03-26T11:26:26.601Z,5.90
2023-03-26T11:27:26.655Z,6.00
2023-03-26T11:28:26.622Z,3.90
2023-03-26T11:29:32.670Z,8.40
2023-03-26T11:30:27.544Z,6.80
2023-03-26T11:31:26.554Z,6.90
2023-03-26T11:32:26.515Z,6.30
2023-03-26T11:33:26.542Z,7.00
2023-03-26T11:34:27.544Z,4.90
2023-03-26T11:35:39.528Z,6.00
2023-03-26T11:36:27.496Z,4.20
2023-03-26T11:37:26.467Z,7.00
2023-03-26T11:38:26.453Z,5.00
2023-03-26T11:39:26.451Z,6.40
2023-03-26T11:40:26.457Z,5.50
2023-03-26T11:41:26.387Z,5.80
2023-03-26T11:42:26.409Z,6.00
2023-03-26T11:43:26.378Z,5.60
2023-03-26T11:44:26.410Z,4.10
2023-03-26T11:45:26.404Z,7.10
2023-03-26T11:46:26.388Z,7.00
2023-03-26T11:47:26.360Z,7.70
2023-03-26T11:48:26.301Z,8.50
2023-03-26T11:49:26.318Z,4.90
2023-03-26T11:50:26.371Z,6.60
2023-03-26T11:51:26.296Z,5.20
2023-03-26T11:52:26.317Z,8.30
2023-03-26T11:53:26.309Z,7.90
2023-03-26T11:54:26.254Z,7.20
2023-03-26T11:55:26.257Z,7.10
2023-03-26T11:56:26.292Z,6.40
2023-03-26T11:57:26.234Z,7.90
2023-03-26T11:58:26.257Z,9.00
2023-03-26T11:59:26.174Z,6.70
2023-03-26T12:00:26.222Z,6.10
2023-03-26T12:01:26.184Z,6.70
2023-03-26T12:02:26.320Z,5.90
2023-03-26T12:03:26.138Z,7.50
2023-03-26T12:04:26.152Z,8.10
2023-03-26T12:05:26.144Z,4.70
2023-03-26T12:06:27.282Z,7.70
2023-03-26T12:07:26.102Z,6.20
2023-03-26T12:08:26.152Z,6.20
2023-03-26T12:09:26.074Z,9.10
2023-03-26T12:10:26.091Z,7.70
2023-03-26T12:11:26.061Z,7.20
2023-03-26T12:12:26.058Z,6.70
2023-03-26T12:13:26.047Z,10.00
2023-03-26T12:14:26.007Z,9.10
2023-03-26T12:15:26.011Z,5.50
2023-03-26T12:16:26.027Z,6.10
2023-03-26T12:17:31.562Z,9.80
2023-03-26T12:18:27.020Z,7.50
2023-03-26T12:19:25.971Z,6.30
2023-03-26T12:20:26.002Z,7.30
2023-03-26T12:21:25.951Z,8.40
2023-03-26T12:22:25.908Z,7.10
2023-03-26T12:23:25.996Z,7.80
2023-03-26T12:24:25.906Z,9.10
2023-03-26T12:25:25.914Z,6.90
2023-03-26T12:26:25.902Z,8.30
2023-03-26T12:27:25.855Z,7.40
2023-03-26T12:28:25.843Z,6.60
2023-03-26T12:29:25.895Z,7.20
2023-03-26T12:30:25.826Z,6.90
2023-03-26T12:31:25.869Z,7.40
2023-03-26T12:32:35.480Z,6.80
2023-03-26T12:33:26.928Z,8.60
2023-03-26T12:34:25.810Z,8.60
2023-03-26T12:35:25.805Z,8.30
2023-03-26T12:36:25.751Z,8.30
2023-03-26T12:37:25.748Z,8.20
2023-03-26T12:38:25.760Z,7.10
2023-03-26T12:40:08.795Z,7.80
2023-03-26T12:40:26.739Z,7.10
2023-03-26T12:44:44.759Z,8.00
2023-03-26T12:44:51.663Z,7.50
2023-03-26T12:44:52.999Z,8.60
2023-03-26T12:44:53.521Z,9.60
2023-03-26T12:45:26.656Z,8.20
2023-03-26T12:47:55.672Z,8.60
2023-03-26T12:47:59.071Z,8.00
2023-03-26T12:48:26.779Z,7.60
2023-03-26T12:49:25.639Z,7.90
2023-03-26T12:50:34.681Z,7.30
2023-03-26T12:51:26.580Z,6.70
2023-03-26T12:52:25.619Z,8.40
2023-03-26T12:53:25.567Z,8.10
2023-03-26T12:54:25.582Z,7.00
2023-03-26T12:55:25.529Z,6.90
2023-03-26T12:56:25.576Z,6.40
2023-03-26T12:57:25.535Z,6.00
2023-03-26T12:58:25.549Z,5.30
2023-03-26T12:59:25.523Z,6.00
2023-03-26T13:00:25.504Z,6.60
2023-03-26T13:01:25.479Z,5.90
2023-03-26T13:02:25.567Z,5.60
2023-03-26T13:03:25.547Z,4.40
2023-03-26T13:04:25.432Z,4.90
2023-03-26T13:05:25.430Z,7.60
2023-03-26T13:06:25.533Z,5.20
2023-03-26T13:07:25.408Z,7.40
2023-03-26T13:08:25.411Z,6.10
2023-03-26T13:09:25.430Z,4.80
2023-03-26T13:10:25.367Z,6.80
2023-03-26T13:11:25.376Z,6.30
2023-03-26T13:12:25.385Z,4.20
2023-03-26T13:13:25.346Z,4.00
2023-03-26T13:14:25.395Z,5.30
2023-03-26T13:15:25.356Z,6.50
2023-03-26T13:16:25.320Z,5.20
2023-03-26T13:17:25.316Z,5.30
2023-03-26T13:18:25.323Z,5.20